createdAt,value
2018-05-24T04:10:13.276Z,728
2018-05-24T04:10:38.785Z,728
2018-05-24T04:11:04.270Z,732
2018-05-24T04:11:29.807Z,732
2018-05-24T04:11:55.292Z,732
2018-05-24T04:12:20.779Z,732
2018-05-24T04:12:46.276Z,736
2018-05-24T04:13:11.754Z,744
2018-05-24T04:13:37.240Z,760
2018-05-24T04:14:02.748Z,780
2018-05-24T04:14:28.287Z,808
2018-05-24T04:14:53.797Z,836
2018-05-24T04:15:19.293Z,868
2018-05-24T04:15:44.808Z,904
2018-05-24T04:16:10.299Z,944
2018-05-24T04:16:35.885Z,984
2018-05-24T04:17:01.379Z,1032
2018-05-24T04:17:26.890Z,1068
2018-05-24T04:17:52.345Z,1112
2018-05-24T04:18:17.875Z,1148
2018-05-24T04:18:43.356Z,1188
2018-05-24T04:19:08.845Z,1212
2018-05-24T04:19:34.313Z,1220
2018-05-24T04:19:59.790Z,1216
2018-05-24T04:20:25.298Z,1196
2018-05-24T04:20:50.838Z,1176
2018-05-24T04:21:16.331Z,1148
2018-05-24T04:21:41.864Z,1116
2018-05-24T04:22:07.340Z,1096
2018-05-24T04:22:32.833Z,1084
2018-05-24T04:22:58.347Z,1072
2018-05-24T04:23:23.863Z,1068
2018-05-24T04:23:49.334Z,1064
2018-05-24T04:24:14.821Z,1068
2018-05-24T04:24:40.315Z,1072
2018-05-24T04:25:05.782Z,1076
2018-05-24T04:25:31.268Z,1080
2018-05-24T04:25:56.781Z,1080
2018-05-24T04:26:22.264Z,1080
2018-05-24T04:26:47.781Z,1068
2018-05-24T04:27:13.260Z,1056
2018-05-24T04:27:38.761Z,1052
2018-05-24T04:28:04.245Z,1044
2018-05-24T04:28:29.731Z,1036
2018-05-24T04:28:55.440Z,1028
2018-05-24T04:29:20.974Z,1020
2018-05-24T04:29:46.438Z,1004
2018-05-24T04:30:11.975Z,996
2018-05-24T04:30:37.493Z,984
2018-05-24T04:31:02.973Z,972
2018-05-24T04:31:28.447Z,956
2018-05-24T04:31:53.893Z,944
2018-05-24T04:32:19.383Z,932
2018-05-24T04:32:44.902Z,928
2018-05-24T04:33:10.384Z,932
2018-05-24T04:33:35.900Z,952
2018-05-24T04:34:01.410Z,972
2018-05-24T04:34:26.935Z,1004
2018-05-24T04:34:52.410Z,1040
2018-05-24T04:35:18.145Z,1064
2018-05-24T04:35:43.748Z,1096
2018-05-24T04:36:09.228Z,1136
2018-05-24T04:36:34.734Z,1188
2018-05-24T04:37:00.234Z,1256
2018-05-24T04:37:25.733Z,1336
2018-05-24T04:37:51.242Z,1424
2018-05-24T04:38:16.742Z,1520
2018-05-24T04:38:42.240Z,1628
2018-05-24T04:39:07.746Z,1740
2018-05-24T04:39:33.266Z,1856
2018-05-24T04:39:58.749Z,1964
2018-05-24T04:40:24.230Z,2064
2018-05-24T04:40:49.700Z,2156
2018-05-24T04:41:15.232Z,2256
2018-05-24T04:41:40.728Z,2364
2018-05-24T04:42:06.229Z,2464
2018-05-24T04:42:31.710Z,2548
2018-05-24T04:42:57.214Z,2600
2018-05-24T04:43:22.726Z,2620
2018-05-24T04:43:48.244Z,2600
2018-05-24T04:44:13.720Z,2584
2018-05-24T04:44:39.240Z,2524
2018-05-24T04:45:04.728Z,2436
2018-05-24T04:45:30.259Z,2348
2018-05-24T04:45:55.734Z,2276
2018-05-24T04:46:21.205Z,2208
2018-05-24T04:46:46.708Z,2156
2018-05-24T04:47:12.195Z,2128
2018-05-24T04:47:37.689Z,2124
2018-05-24T04:48:03.157Z,2136
2018-05-24T04:48:28.647Z,2140
2018-05-24T04:48:54.170Z,2128
2018-05-24T04:49:19.668Z,2120
2018-05-24T04:49:45.173Z,2108
2018-05-24T04:50:10.666Z,2136
2018-05-24T04:50:36.212Z,2208
2018-05-24T04:51:01.686Z,2308
2018-05-24T04:51:27.176Z,2404
2018-05-24T04:51:52.668Z,2492
2018-05-24T04:52:18.254Z,2540
2018-05-24T04:52:43.675Z,2568
2018-05-24T04:53:09.170Z,2620
2018-05-24T04:53:34.695Z,2664
2018-05-24T04:54:00.312Z,2724
2018-05-24T04:54:25.925Z,2812
2018-05-24T04:54:51.645Z,2920
2018-05-24T04:55:17.389Z,3012
2018-05-24T04:55:42.973Z,3140
2018-05-24T04:56:08.717Z,3308
2018-05-24T04:56:34.633Z,3464
2018-05-24T04:57:00.106Z,3596
2018-05-24T04:57:25.821Z,3704
2018-05-24T04:57:51.520Z,3820
2018-05-24T04:58:17.289Z,3912
2018-05-24T04:58:42.848Z,3944
2018-05-24T04:59:08.536Z,3956
2018-05-24T04:59:34.155Z,3948
2018-05-24T04:59:59.832Z,3908
2018-05-24T05:00:25.393Z,3872
2018-05-24T05:00:51.158Z,3824
2018-05-24T05:01:16.846Z,3728
2018-05-24T05:01:42.574Z,3604
2018-05-24T05:02:08.318Z,3456
2018-05-24T05:02:34.116Z,3304
2018-05-24T05:02:59.957Z,3156
2018-05-24T05:03:25.634Z,3048
2018-05-24T05:03:51.216Z,2980
2018-05-24T05:04:16.974Z,2936
2018-05-24T05:04:42.553Z,2916
2018-05-24T05:05:08.139Z,2916
2018-05-24T05:05:33.747Z,2928
2018-05-24T05:05:59.531Z,2940
2018-05-24T05:06:25.339Z,2964
2018-05-24T05:06:50.801Z,2992
2018-05-24T05:07:16.319Z,3048
2018-05-24T05:07:41.811Z,3152
2018-05-24T05:08:07.300Z,3280
2018-05-24T05:08:32.860Z,3404
2018-05-24T05:08:58.367Z,3508
2018-05-24T05:09:23.887Z,3568
2018-05-24T05:09:49.447Z,3580
2018-05-24T05:10:14.950Z,3576
2018-05-24T05:10:40.454Z,3576
2018-05-24T05:11:05.952Z,3576
2018-05-24T05:11:31.449Z,3552
2018-05-24T05:11:56.951Z,3492
2018-05-24T05:12:22.449Z,3408
2018-05-24T05:12:47.964Z,3304
2018-05-24T05:13:13.463Z,3240
2018-05-24T05:13:38.959Z,3192
2018-05-24T05:14:04.472Z,3188
2018-05-24T05:14:29.966Z,3192
2018-05-24T05:14:55.484Z,3204
2018-05-24T05:15:20.968Z,3228
2018-05-24T05:15:46.500Z,3256
2018-05-24T05:16:11.979Z,3284
2018-05-24T05:16:37.454Z,3308
2018-05-24T05:17:02.957Z,3356
2018-05-24T05:17:28.514Z,3432
2018-05-24T05:17:54.060Z,3532
2018-05-24T05:18:19.577Z,3636
2018-05-24T05:18:45.060Z,3740
2018-05-24T05:19:10.572Z,3840
2018-05-24T05:19:36.112Z,3912
2018-05-24T05:20:01.644Z,3988
2018-05-24T05:20:27.134Z,4068
2018-05-24T05:20:52.608Z,4156
2018-05-24T05:21:18.098Z,4244
2018-05-24T05:21:43.627Z,4320
2018-05-24T05:22:09.228Z,4376
2018-05-24T05:22:34.740Z,4440
2018-05-24T05:23:00.321Z,4516
2018-05-24T05:23:25.835Z,4588
2018-05-24T05:23:51.271Z,4624
2018-05-24T05:24:16.764Z,4644
2018-05-24T05:24:42.290Z,4652
2018-05-24T05:25:07.861Z,4668
2018-05-24T05:25:33.261Z,4672
2018-05-24T05:25:58.799Z,4684
2018-05-24T05:26:24.274Z,4704
2018-05-24T05:26:49.779Z,4724
2018-05-24T05:27:15.274Z,4728
2018-05-24T05:27:40.766Z,4720
2018-05-24T05:28:06.281Z,4708
2018-05-24T05:28:31.801Z,4704
2018-05-24T05:28:57.379Z,4692
2018-05-24T05:29:22.807Z,4720
2018-05-24T05:29:48.365Z,4744
2018-05-24T05:30:13.875Z,4792
2018-05-24T05:30:39.511Z,4836
2018-05-24T05:31:04.901Z,4828
2018-05-24T05:31:30.388Z,4864
2018-05-24T05:31:55.894Z,4900
2018-05-24T05:32:21.501Z,4944
2018-05-24T05:32:47.043Z,5048
2018-05-24T05:33:12.546Z,5192
2018-05-24T05:33:38.075Z,5204
2018-05-24T05:34:03.528Z,5272
2018-05-24T05:34:29.215Z,5352
2018-05-24T05:34:54.730Z,5452
2018-05-24T05:35:58.593Z,5736
2018-05-24T05:36:24.113Z,5840
2018-05-24T05:36:49.613Z,5956
2018-05-24T05:37:15.127Z,6080
2018-05-24T05:37:40.600Z,6196
2018-05-24T05:38:06.184Z,6344
2018-05-24T05:38:31.660Z,6492
2018-05-24T05:38:57.156Z,6612
2018-05-24T05:39:22.643Z,6748
2018-05-24T05:39:48.151Z,6872
2018-05-24T05:40:13.695Z,7024
2018-05-24T05:40:39.188Z,7208
2018-05-24T05:41:04.648Z,7372
2018-05-24T05:41:30.122Z,7500
2018-05-24T05:41:55.599Z,7644
2018-05-24T05:42:21.128Z,7804
2018-05-24T05:42:46.675Z,7976
2018-05-24T05:43:12.127Z,8160
2018-05-24T05:43:37.618Z,8376
2018-05-24T05:44:03.302Z,8596
2018-05-24T05:44:28.870Z,8792
2018-05-24T05:44:54.465Z,8972
2018-05-24T05:45:19.868Z,9112
2018-05-24T05:45:45.383Z,9208
2018-05-24T05:46:10.897Z,9264
2018-05-24T05:46:36.618Z,9292
2018-05-24T05:47:02.182Z,9328
2018-05-24T05:47:27.675Z,9404
2018-05-24T05:47:53.229Z,9504
2018-05-24T05:48:18.704Z,9656
2018-05-24T05:48:44.195Z,9812
2018-05-24T05:49:09.702Z,10020
2018-05-24T05:49:35.204Z,10280
2018-05-24T05:50:00.698Z,10524
2018-05-24T05:50:26.221Z,10792
2018-05-24T05:50:51.706Z,10992
2018-05-24T05:51:17.207Z,11128
2018-05-24T05:51:42.709Z,11200
2018-05-24T05:52:08.309Z,11268
2018-05-24T05:52:33.685Z,11304
2018-05-24T05:52:59.219Z,11352
2018-05-24T05:53:24.703Z,11372
2018-05-24T05:53:50.245Z,11412
2018-05-24T05:54:15.732Z,11468
2018-05-24T05:54:41.221Z,11472
2018-05-24T05:55:06.757Z,11484
2018-05-24T05:55:32.252Z,11840
2018-05-24T05:55:57.763Z,11840
2018-05-24T05:56:23.262Z,12188
2018-05-24T05:56:48.752Z,11512
2018-05-24T05:57:14.266Z,12200
2018-05-24T05:57:39.771Z,12064
2018-05-24T05:58:05.257Z,12140
2018-05-24T05:58:30.773Z,13356
2018-05-24T05:58:56.285Z,15072
2018-05-24T05:59:21.801Z,16384
2018-05-24T05:59:47.312Z,18112
2018-05-24T06:00:12.837Z,16800
2018-05-24T06:00:38.344Z,20320
2018-05-24T06:01:03.852Z,18304
2018-05-24T06:01:29.336Z,20480
2018-05-24T06:01:54.991Z,19200
2018-05-24T06:02:20.593Z,17504
2018-05-24T06:02:46.320Z,13936
2018-05-24T06:03:11.915Z,14604
2018-05-24T06:03:37.453Z,15872
2018-05-24T06:04:02.930Z,16512
2018-05-24T06:04:28.441Z,17312
2018-05-24T06:04:53.956Z,18336
2018-05-24T06:05:19.455Z,15456
2018-05-24T06:05:44.932Z,16288
2018-05-24T06:06:10.443Z,14468
2018-05-24T06:06:35.942Z,14608
2018-05-24T06:07:01.444Z,15712
2018-05-24T06:07:26.937Z,18176
2018-05-24T06:07:52.417Z,17472
2018-05-24T06:08:17.926Z,15200
2018-05-24T06:08:43.438Z,14328
2018-05-24T06:09:08.910Z,13488
2018-05-24T06:09:34.438Z,13400
2018-05-24T06:09:59.908Z,14488
2018-05-24T06:10:25.396Z,14520
2018-05-24T06:10:50.914Z,15360
2018-05-24T06:11:16.455Z,14976
2018-05-24T06:11:41.942Z,13344
2018-05-24T06:12:07.424Z,13892
2018-05-24T06:12:32.925Z,12244
2018-05-24T06:12:58.465Z,12388
2018-05-24T06:13:23.969Z,14024
2018-05-24T06:13:49.579Z,16544
2018-05-24T06:14:14.998Z,16704
2018-05-24T06:14:40.507Z,17888
2018-05-24T06:15:05.992Z,17536
2018-05-24T06:15:31.516Z,18048
2018-05-24T06:16:44.782Z,16160
2018-05-24T06:17:10.286Z,15936
2018-05-24T06:17:35.792Z,14976
2018-05-24T06:18:01.307Z,16000
2018-05-24T06:18:26.796Z,14752
2018-05-24T06:18:52.300Z,14144
2018-05-24T06:20:06.090Z,12044
2018-05-24T06:20:31.592Z,12172
2018-05-24T06:20:57.097Z,11988
2018-05-24T06:21:22.605Z,11200
2018-05-24T06:21:48.103Z,11584
2018-05-24T06:23:07.046Z,10828
2018-05-24T06:23:32.566Z,10104
2018-05-24T06:23:58.050Z,9664
2018-05-24T06:24:23.883Z,9268
2018-05-24T06:24:49.352Z,8912
2018-05-24T06:25:14.862Z,8604
2018-05-24T06:25:40.371Z,8264
2018-05-24T06:26:05.869Z,8052
2018-05-24T06:26:31.360Z,7928
2018-05-24T06:26:56.882Z,7908
2018-05-24T06:27:22.370Z,8604
2018-05-24T06:27:47.884Z,8508
2018-05-24T06:28:13.367Z,8332
2018-05-24T06:28:38.937Z,7920
2018-05-24T06:29:04.446Z,8332
2018-05-24T06:29:29.934Z,8284
2018-05-24T06:29:55.494Z,8224
2018-05-24T06:30:20.995Z,8300
2018-05-24T06:30:46.518Z,8408
2018-05-24T06:31:12.010Z,8560
2018-05-24T06:31:37.530Z,9544
2018-05-24T06:32:03.004Z,10088
2018-05-24T06:32:28.505Z,10040
2018-05-24T06:32:54.016Z,9968
2018-05-24T06:33:19.511Z,9700
2018-05-24T06:33:45.021Z,9444
2018-05-24T06:34:10.497Z,9576
2018-05-24T06:34:36.104Z,9128
2018-05-24T06:35:01.619Z,9164
2018-05-24T06:35:27.141Z,8812
2018-05-24T06:35:52.557Z,8884
2018-05-24T06:36:18.036Z,8744
2018-05-24T06:36:43.536Z,8872
2018-05-24T06:37:09.050Z,9032
2018-05-24T06:37:34.542Z,9172
2018-05-24T06:37:59.994Z,9352
2018-05-24T06:38:25.474Z,9504
2018-05-24T06:38:50.995Z,9660
2018-05-24T06:39:16.505Z,9768
2018-05-24T06:39:41.979Z,9816
2018-05-24T06:40:07.484Z,9880
2018-05-24T06:40:32.992Z,9964
2018-05-24T06:40:58.518Z,10052
2018-05-24T06:41:24.007Z,10156
2018-05-24T06:41:49.485Z,10284
2018-05-24T06:42:14.997Z,10432
2018-05-24T06:42:40.466Z,10596
2018-05-24T06:43:05.965Z,10956
2018-05-24T06:43:31.498Z,11252
2018-05-24T06:43:57.036Z,11376
2018-05-24T06:44:22.598Z,11412
2018-05-24T06:44:48.225Z,11380
2018-05-24T06:45:14.309Z,11488
2018-05-24T06:45:39.520Z,11600
2018-05-24T06:46:05.020Z,11812
2018-05-24T06:46:30.570Z,12140
2018-05-24T06:46:55.996Z,12204
2018-05-24T06:47:21.491Z,12572
2018-05-24T06:47:47.046Z,12700
2018-05-24T06:48:12.547Z,13164
2018-05-24T06:48:38.133Z,13104
2018-05-24T06:49:03.631Z,13436
2018-05-24T06:49:29.108Z,13472
2018-05-24T06:49:54.599Z,13800
2018-05-24T06:50:20.103Z,13792
2018-05-24T06:50:45.646Z,13824
2018-05-24T06:51:11.068Z,13952
2018-05-24T06:51:36.595Z,14044
2018-05-24T06:52:02.068Z,14104
2018-05-24T06:52:27.563Z,14256
2018-05-24T06:52:53.007Z,14484
2018-05-24T06:53:18.534Z,15012
2018-05-24T06:53:44.050Z,15012
2018-05-24T06:54:09.529Z,15084
2018-05-24T06:54:35.041Z,15660
2018-05-24T06:55:00.511Z,15432
2018-05-24T06:55:26.012Z,15740
2018-05-24T06:55:51.511Z,16040
2018-05-24T06:56:17.039Z,16284
2018-05-24T06:56:42.565Z,16704
2018-05-24T06:57:08.064Z,17216
2018-05-24T06:57:33.614Z,17408
2018-05-24T06:57:59.256Z,17504
2018-05-24T06:58:24.962Z,17856
2018-05-24T06:58:50.691Z,17856
2018-05-24T06:59:16.347Z,18208
2018-05-24T06:59:41.999Z,18368
2018-05-24T07:00:07.772Z,18400
2018-05-24T07:01:26.920Z,18496
2018-05-24T07:01:52.393Z,18208
2018-05-24T07:02:17.881Z,17920
2018-05-24T07:02:43.375Z,17568
2018-05-24T07:03:08.871Z,17472
2018-05-24T07:03:34.370Z,17152
2018-05-24T07:03:59.903Z,16896
2018-05-24T07:04:25.407Z,16460
2018-05-24T07:04:51.037Z,16220
2018-05-24T07:05:16.672Z,15956
2018-05-24T07:05:42.289Z,15792
2018-05-24T07:06:07.807Z,15472
2018-05-24T07:06:33.333Z,15092
2018-05-24T07:06:58.879Z,14856
2018-05-24T07:07:24.375Z,14496
2018-05-24T07:07:49.862Z,14320
2018-05-24T07:08:15.331Z,14496
2018-05-24T07:08:40.834Z,14228
2018-05-24T07:09:06.334Z,14124
2018-05-24T07:09:31.832Z,13896
2018-05-24T07:09:57.365Z,14400
2018-05-24T07:10:22.869Z,15292
2018-05-24T07:10:48.313Z,15972
2018-05-24T07:11:13.860Z,16640
2018-05-24T07:11:39.322Z,18080
2018-05-24T07:12:04.793Z,20832
2018-05-24T07:12:30.290Z,21632
2018-05-24T07:12:55.802Z,25280
2018-05-24T07:13:21.286Z,26656
2018-05-24T07:13:46.790Z,26400
2018-05-24T07:14:12.296Z,29760
2018-05-24T07:14:37.813Z,26496
2018-05-24T07:15:03.332Z,14788
2018-05-24T07:15:28.836Z,13308
2018-05-24T07:15:54.282Z,20992
2018-05-24T07:16:19.773Z,13600
2018-05-24T07:16:45.249Z,19168
2018-05-24T07:17:10.778Z,32608
2018-05-24T07:17:36.270Z,35648
2018-05-24T07:18:01.801Z,35360
2018-05-24T07:18:27.264Z,34304
2018-05-24T07:18:52.768Z,34208
2018-05-24T07:19:18.242Z,33504
2018-05-24T07:19:43.736Z,32768
2018-05-24T07:20:09.251Z,36992
2018-05-24T07:20:34.747Z,41280
2018-05-24T07:21:00.248Z,41504
2018-05-24T07:21:25.782Z,42144
2018-05-24T07:21:51.273Z,41664
2018-05-24T07:22:16.798Z,41120
2018-05-24T07:22:42.297Z,40224
2018-05-24T07:23:07.780Z,38720
2018-05-24T07:23:33.387Z,38944
2018-05-24T07:23:58.896Z,36992
2018-05-24T07:24:24.441Z,36384
2018-05-24T07:24:50.178Z,36800
2018-05-24T07:25:15.729Z,35360
2018-05-24T07:25:41.237Z,33312
2018-05-24T07:26:06.736Z,31904
2018-05-24T07:26:32.270Z,30592
2018-05-24T07:26:57.819Z,28864
2018-05-24T07:27:23.290Z,28384
2018-05-24T07:27:48.810Z,27296
2018-05-24T07:28:14.542Z,26784
2018-05-24T07:28:40.057Z,27136
2018-05-24T07:29:05.616Z,27200
2018-05-24T07:29:31.127Z,27456
2018-05-24T07:29:56.581Z,27264
2018-05-24T07:30:22.427Z,26752
2018-05-24T07:30:48.363Z,26912
2018-05-24T07:31:14.247Z,27264
2018-05-24T07:31:39.787Z,26912
2018-05-24T07:32:05.436Z,26112
2018-05-24T07:32:31.096Z,23904
2018-05-24T07:32:56.668Z,24800
2018-05-24T07:33:22.399Z,24160
2018-05-24T07:33:48.033Z,23488
2018-05-24T07:34:13.780Z,23168
2018-05-24T07:34:39.770Z,23264
2018-05-24T07:35:05.312Z,22944
2018-05-24T07:35:30.948Z,23104
2018-05-24T07:35:56.558Z,22912
2018-05-24T07:36:22.309Z,22208
2018-05-24T07:36:48.064Z,23232
2018-05-24T07:37:13.649Z,22496
2018-05-24T07:37:39.394Z,22816
2018-05-24T07:38:04.972Z,21952
2018-05-24T07:38:30.661Z,20032
2018-05-24T07:38:56.713Z,18176
2018-05-24T07:39:22.499Z,17120
2018-05-24T07:39:48.008Z,16160
2018-05-24T07:40:13.719Z,16544
2018-05-24T07:40:40.700Z,16736
2018-05-24T07:41:06.302Z,18912
2018-05-24T07:41:31.889Z,20064
2018-05-24T07:41:57.640Z,14924
2018-05-24T07:42:23.346Z,12064
2018-05-24T07:42:48.992Z,11484
2018-05-24T07:43:14.834Z,11200
2018-05-24T07:43:40.510Z,10132
2018-05-24T07:44:06.106Z,9784
2018-05-24T07:44:31.894Z,9968
2018-05-24T07:44:57.460Z,17408
2018-05-24T07:45:23.024Z,14272
2018-05-24T07:45:48.669Z,8752
2018-05-24T07:46:14.400Z,8900
2018-05-24T07:46:40.156Z,8240
2018-05-24T07:47:05.828Z,8304
2018-05-24T07:47:31.504Z,9964
2018-05-24T07:47:57.003Z,8444
2018-05-24T07:48:22.782Z,8440
2018-05-24T07:48:48.479Z,8556
2018-05-24T07:49:14.109Z,8732
2018-05-24T07:49:39.780Z,8888
2018-05-24T07:50:05.481Z,9084
2018-05-24T07:50:31.155Z,9484
2018-05-24T07:50:56.837Z,9648
2018-05-24T07:51:22.599Z,9956
2018-05-24T07:51:48.235Z,10348
2018-05-24T07:52:13.983Z,10764
2018-05-24T07:52:39.639Z,11292
2018-05-24T07:53:05.200Z,11448
2018-05-24T07:53:30.941Z,11736
2018-05-24T07:53:56.749Z,12016
2018-05-24T07:54:22.298Z,12276
2018-05-24T07:54:47.941Z,12860
2018-05-24T07:55:13.587Z,12732
2018-05-24T07:55:39.162Z,12912
2018-05-24T07:56:04.783Z,13052
2018-05-24T07:56:30.451Z,13136
2018-05-24T07:56:56.117Z,13128
2018-05-24T07:57:21.795Z,13104
2018-05-24T07:57:47.432Z,13252
2018-05-24T07:58:13.147Z,13020
2018-05-24T07:58:38.748Z,12912
2018-05-24T07:59:04.573Z,12972
2018-05-24T07:59:30.352Z,13032
2018-05-24T07:59:56.029Z,13124
2018-05-24T08:00:21.560Z,13156
2018-05-24T08:00:47.057Z,13248
2018-05-24T08:01:12.838Z,13400
2018-05-24T08:01:38.503Z,13456
2018-05-24T08:02:04.086Z,13692
2018-05-24T08:02:29.731Z,13948
2018-05-24T08:02:55.359Z,14140
2018-05-24T08:03:21.018Z,14360
2018-05-24T08:03:46.715Z,14492
2018-05-24T08:04:12.194Z,14640
2018-05-24T08:04:37.870Z,14748
2018-05-24T08:05:03.550Z,15100
2018-05-24T08:05:29.190Z,14952
2018-05-24T08:05:54.730Z,15000
2018-05-24T08:06:20.314Z,15136
2018-05-24T08:06:45.986Z,15324
2018-05-24T08:07:11.680Z,15604
2018-05-24T08:07:37.377Z,15960
2018-05-24T08:08:02.905Z,16268
2018-05-24T08:08:28.468Z,16340
2018-05-24T08:08:54.178Z,16536
2018-05-24T08:09:19.788Z,16796
2018-05-24T08:09:45.454Z,17600
2018-05-24T08:10:10.961Z,18144
2018-05-24T08:10:36.638Z,18176
2018-05-24T08:11:02.327Z,17984
2018-05-24T08:11:27.983Z,17824
2018-05-24T08:11:53.634Z,17536
2018-05-24T08:12:19.276Z,17184
2018-05-24T08:12:44.858Z,16784
2018-05-24T08:13:10.570Z,16344
2018-05-24T08:13:36.252Z,15832
2018-05-24T08:14:01.931Z,15328
2018-05-24T08:14:27.632Z,14676
2018-05-24T08:14:53.140Z,14240
2018-05-24T08:15:18.727Z,14036
2018-05-24T08:15:44.350Z,13824
2018-05-24T08:16:09.994Z,13468
2018-05-24T08:16:35.606Z,12744
2018-05-24T08:17:01.308Z,12676
2018-05-24T08:17:27.076Z,12960
2018-05-24T08:17:52.946Z,13540
2018-05-24T08:18:18.548Z,13768
2018-05-24T08:18:44.355Z,14092
2018-05-24T08:19:10.093Z,14500
2018-05-24T08:19:35.704Z,15108
2018-05-24T08:20:01.343Z,15100
2018-05-24T08:20:26.881Z,14360
2018-05-24T08:20:52.731Z,14616
2018-05-24T08:21:18.257Z,14596
2018-05-24T08:21:43.906Z,14472
2018-05-24T08:22:09.616Z,14564
2018-05-24T08:22:35.335Z,14660
2018-05-24T08:23:01.170Z,14712
2018-05-24T08:23:27.392Z,15316
2018-05-24T08:23:53.019Z,15184
2018-05-24T08:24:18.647Z,15400
2018-05-24T08:24:44.684Z,15148
2018-05-24T08:25:10.451Z,15012
2018-05-24T08:25:36.279Z,14840
2018-05-24T08:26:02.025Z,14272
2018-05-24T08:26:27.848Z,13904
2018-05-24T08:26:53.593Z,13768
2018-05-24T08:27:19.331Z,13716
2018-05-24T08:27:45.035Z,14148
2018-05-24T08:28:10.697Z,14232
2018-05-24T08:28:36.222Z,14144
2018-05-24T08:29:01.819Z,13908
2018-05-24T08:29:27.698Z,14092
2018-05-24T08:29:53.225Z,13860
2018-05-24T08:30:18.911Z,13488
2018-05-24T08:30:44.628Z,13232
2018-05-24T08:31:10.272Z,12808
2018-05-24T08:31:36.072Z,12452
2018-05-24T08:32:01.785Z,12344
2018-05-24T08:32:27.523Z,12232
2018-05-24T08:32:53.234Z,11808
2018-05-24T08:33:19.085Z,11616
2018-05-24T08:33:44.763Z,11636
2018-05-24T08:34:10.712Z,12196
2018-05-24T08:34:36.245Z,12352
2018-05-24T08:35:01.986Z,12532
2018-05-24T08:35:27.572Z,13012
2018-05-24T08:35:53.184Z,12792
2018-05-24T08:36:18.857Z,12860
2018-05-24T08:36:44.373Z,13184
2018-05-24T08:37:09.973Z,13164
2018-05-24T08:37:35.557Z,12840
2018-05-24T08:38:01.171Z,12352
2018-05-24T08:38:26.731Z,12160
2018-05-24T08:38:52.358Z,11960
2018-05-24T08:39:18.058Z,11692
2018-05-24T08:39:43.766Z,11264
2018-05-24T08:40:09.420Z,11020
2018-05-24T08:40:35.153Z,11204
2018-05-24T08:41:01.005Z,11168
2018-05-24T08:41:26.583Z,11116
2018-05-24T08:41:52.095Z,11076
2018-05-24T08:42:17.688Z,10992
2018-05-24T08:42:43.376Z,10996
2018-05-24T08:43:09.286Z,10804
2018-05-24T08:43:35.064Z,10556
2018-05-24T08:44:00.608Z,10324
2018-05-24T08:44:26.254Z,10452
2018-05-24T08:44:52.172Z,10688
2018-05-24T08:45:17.714Z,11036
2018-05-24T08:45:43.584Z,11296
2018-05-24T08:46:09.399Z,11496
2018-05-24T08:46:35.204Z,11708
2018-05-24T08:47:00.967Z,11964
2018-05-24T08:47:26.517Z,12288
2018-05-24T08:47:52.199Z,12580
2018-05-24T08:48:17.937Z,12832
2018-05-24T08:48:43.592Z,12984
2018-05-24T08:49:09.206Z,13148
2018-05-24T08:49:34.795Z,12984
2018-05-24T08:50:00.541Z,12632
2018-05-24T08:50:26.200Z,12308
2018-05-24T08:50:51.942Z,11868
2018-05-24T08:51:17.592Z,11396
2018-05-24T08:51:43.284Z,10916
2018-05-24T08:52:09.009Z,10564
2018-05-24T08:52:35.222Z,10316
2018-05-24T08:53:01.334Z,10068
2018-05-24T08:53:27.921Z,10076
2018-05-24T08:53:53.804Z,10044
2018-05-24T08:54:21.807Z,9952
2018-05-24T08:54:47.582Z,9952
2018-05-24T08:55:13.560Z,9916
2018-05-24T08:55:39.527Z,9864
2018-05-24T08:56:05.122Z,9720
2018-05-24T08:56:30.899Z,9520
2018-05-24T08:56:56.456Z,9332
2018-05-24T08:57:22.080Z,9252
2018-05-24T08:57:47.751Z,8772
2018-05-24T08:58:13.412Z,8716
2018-05-24T08:58:39.239Z,8768
2018-05-24T08:59:04.791Z,8592
2018-05-24T08:59:30.411Z,8568
2018-05-24T08:59:56.055Z,8984
2018-05-24T09:00:21.692Z,9576
2018-05-24T09:00:47.381Z,9776
2018-05-24T09:01:12.985Z,9816
2018-05-24T09:01:38.677Z,10032
2018-05-24T09:02:04.453Z,10008
2018-05-24T09:02:31.040Z,9436
2018-05-24T09:02:56.633Z,9464
2018-05-24T09:03:22.350Z,9528
2018-05-24T09:03:48.003Z,9956
2018-05-24T09:04:13.611Z,9808
2018-05-24T09:04:39.272Z,9860
2018-05-24T09:05:04.906Z,9924
2018-05-24T09:05:30.554Z,9988
2018-05-24T09:05:56.256Z,9964
2018-05-24T09:06:21.921Z,10380
2018-05-24T09:06:47.538Z,10368
2018-05-24T09:07:13.180Z,10660
2018-05-24T09:07:38.901Z,10668
2018-05-24T09:08:04.567Z,10984
2018-05-24T09:08:30.123Z,11108
2018-05-24T09:08:56.042Z,11132
2018-05-24T09:09:22.169Z,11460
2018-05-24T09:09:47.849Z,11844
2018-05-24T09:10:13.524Z,12184
2018-05-24T09:10:39.245Z,12216
2018-05-24T09:11:05.023Z,11976
2018-05-24T09:11:30.964Z,12056
2018-05-24T09:11:56.624Z,12436
2018-05-24T09:12:22.530Z,13008
2018-05-24T09:12:48.471Z,14060
2018-05-24T09:13:14.090Z,14892
2018-05-24T09:13:39.698Z,14672
2018-05-24T09:14:05.903Z,14964
2018-05-24T09:14:31.476Z,15328
2018-05-24T09:14:57.437Z,15280
2018-05-24T09:15:23.358Z,15376
2018-05-24T09:15:48.995Z,15368
2018-05-24T09:16:15.082Z,15212
2018-05-24T09:16:40.708Z,15044
2018-05-24T09:17:06.520Z,15004
2018-05-24T09:17:32.190Z,14992
2018-05-24T09:17:57.988Z,15332
2018-05-24T09:18:23.775Z,15572
2018-05-24T09:18:49.479Z,15864
2018-05-24T09:19:15.194Z,16508
2018-05-24T09:19:40.840Z,17152
2018-05-24T09:20:07.355Z,17536
2018-05-24T09:20:33.129Z,17632
2018-05-24T09:20:58.805Z,17824
2018-05-24T09:21:24.489Z,17760
2018-05-24T09:21:50.375Z,17632
2018-05-24T09:22:16.144Z,17312
2018-05-24T09:22:41.741Z,16584
2018-05-24T09:23:07.553Z,16292
2018-05-24T09:23:33.338Z,15844
2018-05-24T09:23:59.496Z,15260
2018-05-24T09:24:25.425Z,14844
2018-05-24T09:24:51.129Z,14124
2018-05-24T09:25:18.628Z,14544
2018-05-24T09:25:44.337Z,14204
2018-05-24T09:26:10.351Z,13856
2018-05-24T09:26:36.193Z,13548
2018-05-24T09:27:01.881Z,13104
2018-05-24T09:27:27.549Z,12724
2018-05-24T09:27:53.251Z,12380
2018-05-24T09:28:18.996Z,12076
2018-05-24T09:28:44.902Z,11920
2018-05-24T09:29:10.666Z,11740
2018-05-24T09:29:36.446Z,12328
2018-05-24T09:30:02.260Z,12124
2018-05-24T09:30:27.961Z,12300
2018-05-24T09:30:53.579Z,12708
2018-05-24T09:31:19.193Z,13420
2018-05-24T09:31:44.917Z,14368
2018-05-24T09:32:10.743Z,14708
2018-05-24T09:32:36.613Z,14912
2018-05-24T09:33:02.205Z,15176
2018-05-24T09:33:28.008Z,15728
2018-05-24T09:33:53.909Z,15596
2018-05-24T09:34:19.724Z,15064
2018-05-24T09:34:45.413Z,14560
2018-05-24T09:35:11.217Z,13892
2018-05-24T09:35:36.890Z,13260
2018-05-24T09:36:02.633Z,12632
2018-05-24T09:36:28.357Z,11972
2018-05-24T09:36:54.285Z,11112
2018-05-24T09:37:20.125Z,10840
2018-05-24T09:37:45.762Z,10092
2018-05-24T09:38:11.517Z,9500
2018-05-24T09:38:37.027Z,8888
2018-05-24T09:39:02.788Z,8468
2018-05-24T09:39:28.535Z,7884
2018-05-24T09:39:54.248Z,7584
2018-05-24T09:40:20.011Z,7364
2018-05-24T09:40:45.562Z,7668
2018-05-24T09:41:11.262Z,7776
2018-05-24T09:41:36.944Z,7840
2018-05-24T09:42:02.501Z,7864
2018-05-24T09:42:28.216Z,7964
2018-05-24T09:42:53.956Z,8052
2018-05-24T09:43:20.006Z,8040
2018-05-24T09:43:45.459Z,7988
2018-05-24T09:44:10.987Z,7896
2018-05-24T09:44:37.037Z,7796
2018-05-24T09:45:02.694Z,7708
2018-05-24T09:45:28.504Z,7556
2018-05-24T09:45:54.347Z,7476
2018-05-24T09:46:19.960Z,7452
2018-05-24T09:46:45.685Z,7436
2018-05-24T09:47:11.283Z,7480
2018-05-24T09:47:37.238Z,7596
2018-05-24T09:48:02.957Z,7692
2018-05-24T09:48:28.579Z,7744
2018-05-24T09:48:54.537Z,7768